createdAt,value
2018-12-29T11:11:42.386Z,22.00
2018-12-29T11:14:11.615Z,21.43
2018-12-29T11:16:43.331Z,21.70
2018-12-29T11:19:12.539Z,21.63
2018-12-29T11:21:42.388Z,21.47
2018-12-29T11:24:12.261Z,21.50
2018-12-29T11:26:41.442Z,21.47
2018-12-29T11:29:10.676Z,21.52
2018-12-29T11:31:39.908Z,21.39
2018-12-29T11:34:09.284Z,21.39
2018-12-29T11:36:38.576Z,21.37
2018-12-29T11:39:08.009Z,21.37
2018-12-29T11:41:37.441Z,21.32
2018-12-29T11:44:07.028Z,21.32
2018-12-29T11:46:37.076Z,21.28
2018-12-29T11:49:06.650Z,21.28
2018-12-29T11:51:36.581Z,21.30
2018-12-29T11:54:05.999Z,21.26
2018-12-29T11:56:35.535Z,21.31
2018-12-29T11:59:04.746Z,21.31
2018-12-29T12:01:34.289Z,21.25
2018-12-29T12:04:03.609Z,21.25
2018-12-29T12:09:20.213Z,21.27
2018-12-29T12:11:49.393Z,21.27
2018-12-29T12:14:19.186Z,21.21
2018-12-29T12:16:48.577Z,21.21
2018-12-29T12:19:17.756Z,21.27
2018-12-29T12:21:47.008Z,21.22
2018-12-29T12:24:16.679Z,21.30
2018-12-29T12:26:46.031Z,21.30
2018-12-29T12:29:15.823Z,21.27
2018-12-29T12:31:45.749Z,21.28
2018-12-29T12:34:16.838Z,21.28
2018-12-29T12:36:46.196Z,21.26
2018-12-29T12:39:15.522Z,21.26
2018-12-29T12:41:44.768Z,21.31
2018-12-29T12:44:14.177Z,21.35
2018-12-29T12:46:45.074Z,21.37
2018-12-29T12:49:14.841Z,21.30
2018-12-29T12:51:44.134Z,21.26
2018-12-29T12:54:13.735Z,21.25
2018-12-29T12:56:43.091Z,21.22
2018-12-29T12:59:12.581Z,21.27
2018-12-29T13:01:41.751Z,21.27
2018-12-29T13:04:10.947Z,21.34
2018-12-29T13:06:40.182Z,21.18
2018-12-29T13:09:09.662Z,21.18
2018-12-29T13:11:38.867Z,21.20
2018-12-29T13:14:08.092Z,21.13
2018-12-29T13:16:37.584Z,21.13
2018-12-29T13:19:07.012Z,21.18
2018-12-29T13:21:36.503Z,21.18
2018-12-29T13:24:05.817Z,21.05
2018-12-29T13:26:35.025Z,21.11
2018-12-29T13:29:04.376Z,21.14
2018-12-29T13:31:33.647Z,21.14
2018-12-29T17:54:44.890Z,5.14
2018-12-29T17:57:14.283Z,5.58
2018-12-29T17:59:43.650Z,5.75
2018-12-29T18:02:15.452Z,5.77
2018-12-29T18:04:45.125Z,5.74
2018-12-29T18:07:14.734Z,5.86
2018-12-29T18:09:44.528Z,5.86
2018-12-29T18:12:14.276Z,5.81
2018-12-29T18:14:44.227Z,5.85
2018-12-29T18:17:15.042Z,5.85
2018-12-29T18:19:45.641Z,5.88
2018-12-29T18:22:15.416Z,5.98
2018-12-29T18:24:44.609Z,5.99
2018-12-29T18:27:14.192Z,6.19
2018-12-29T18:29:43.982Z,6.13
2018-12-29T18:32:15.850Z,6.13
2018-12-29T18:34:45.496Z,5.87
2018-12-29T18:37:15.037Z,5.87
2018-12-29T18:39:45.935Z,6.24
2018-12-29T18:42:15.613Z,6.11
2018-12-29T18:44:47.910Z,6.32
2018-12-29T18:47:18.766Z,6.32
2018-12-29T18:49:48.244Z,6.06
2018-12-29T18:52:18.016Z,6.24
2018-12-29T18:54:48.118Z,6.24
2018-12-29T18:57:17.694Z,6.06
2018-12-29T18:59:46.918Z,6.09
2018-12-29T19:02:16.184Z,6.23
2018-12-29T19:04:48.083Z,6.23
2018-12-29T19:07:18.718Z,6.28
2018-12-29T19:09:48.037Z,6.27
2018-12-29T19:12:17.347Z,6.34
2018-12-29T19:14:46.625Z,6.34
2018-12-29T19:17:16.590Z,6.27
2018-12-29T19:19:46.674Z,6.30
2018-12-29T19:22:16.391Z,6.33
2018-12-29T19:24:46.219Z,6.39
2018-12-29T19:27:15.712Z,6.39
2018-12-29T19:29:46.048Z,6.39
2018-12-29T19:32:16.124Z,6.32
2018-12-29T19:34:45.628Z,6.47
2018-12-29T19:37:15.425Z,6.47
2018-12-29T19:39:44.967Z,6.50
2018-12-29T19:42:14.822Z,6.50
2018-12-29T19:44:47.119Z,6.59
2018-12-29T19:47:17.084Z,6.59
2018-12-29T19:49:53.561Z,6.67
2018-12-29T19:52:18.099Z,6.65
2018-12-29T19:54:51.169Z,6.63
2018-12-29T19:57:21.111Z,6.63
2018-12-29T19:59:53.102Z,6.72
2018-12-29T20:02:23.776Z,6.85
2018-12-29T20:04:53.513Z,6.84
2018-12-29T20:07:23.381Z,6.84
2018-12-29T20:09:55.182Z,6.88
2018-12-29T20:12:25.211Z,6.93
2018-12-29T20:14:55.134Z,6.93
2018-12-29T20:17:24.484Z,7.00
2018-12-29T20:20:01.347Z,7.14
2018-12-29T20:22:27.233Z,7.14
2018-12-29T20:24:56.658Z,7.08
2018-12-29T20:27:26.186Z,7.07
2018-12-29T20:29:56.769Z,7.14
2018-12-29T20:32:26.433Z,7.28
2018-12-29T20:34:56.121Z,7.28
2018-12-29T20:37:25.450Z,7.22
2018-12-29T20:39:56.103Z,7.31
2018-12-29T20:42:26.025Z,7.31
2018-12-29T20:44:55.542Z,7.32
2018-12-29T20:47:25.353Z,7.25
2018-12-29T20:49:55.728Z,7.30
2018-12-29T20:52:25.076Z,7.35
2018-12-29T20:54:54.822Z,7.32
2018-12-29T20:57:24.030Z,7.32
2018-12-29T20:59:53.822Z,7.31
2018-12-29T21:02:23.981Z,7.31
2018-12-29T21:04:53.345Z,7.30
2018-12-29T21:07:22.813Z,7.39
2018-12-29T21:09:51.962Z,7.37
2018-12-29T21:12:21.207Z,7.37
2018-12-29T21:14:50.722Z,7.40
2018-12-29T21:17:20.074Z,7.48
2018-12-29T21:19:49.347Z,7.45
2018-12-29T21:22:19.141Z,7.45
2018-12-29T21:24:48.635Z,7.47
2018-12-29T21:27:17.933Z,7.39
2018-12-29T21:29:47.217Z,7.53
2018-12-29T21:32:20.303Z,7.52
2018-12-29T21:34:49.868Z,7.52
2018-12-29T21:37:22.021Z,7.55
2018-12-29T21:39:52.031Z,7.48
2018-12-29T21:42:21.332Z,7.45
2018-12-29T21:44:51.740Z,7.45
2018-12-29T21:47:21.030Z,7.42
2018-12-29T21:49:52.820Z,7.36
2018-12-29T21:52:22.277Z,7.36
2018-12-29T21:54:51.674Z,7.18
2018-12-29T21:57:21.156Z,7.34
2018-12-29T21:59:50.368Z,7.27
2018-12-29T22:02:19.675Z,7.27
2018-12-29T22:04:51.334Z,7.19
2018-12-29T22:07:23.510Z,7.24
2018-12-29T22:09:52.835Z,7.19
2018-12-29T22:12:24.890Z,7.19
2018-12-29T22:14:54.229Z,7.16
2018-12-29T22:17:25.810Z,7.16
2018-12-29T22:19:55.947Z,6.98
2018-12-29T22:22:25.125Z,6.98
2018-12-29T22:24:56.978Z,7.05
2018-12-29T22:27:26.241Z,7.02
2018-12-29T22:29:55.791Z,6.97
2018-12-29T22:32:29.064Z,6.96
2018-12-29T22:34:58.602Z,6.93
2018-12-29T22:37:28.403Z,6.93
2018-12-29T22:39:57.831Z,6.81
2018-12-29T22:42:27.049Z,6.81
2018-12-29T22:44:56.308Z,6.77
2018-12-29T22:47:31.110Z,6.82
2018-12-29T22:50:01.845Z,6.87
2018-12-29T22:52:31.712Z,6.87
2018-12-29T22:55:00.963Z,6.85
2018-12-29T22:57:30.301Z,6.85
2018-12-29T23:00:00.682Z,6.94
2018-12-29T23:02:30.080Z,6.88
2018-12-29T23:05:00.235Z,6.88
2018-12-29T23:07:30.345Z,6.91
2018-12-29T23:10:00.048Z,6.86
2018-12-29T23:12:29.831Z,6.86
2018-12-29T23:15:01.900Z,6.79
2018-12-29T23:17:31.878Z,6.85
2018-12-29T23:20:01.749Z,6.89
2018-12-29T23:22:31.110Z,6.89
2018-12-29T23:25:03.639Z,6.80
2018-12-29T23:27:33.664Z,6.80
2018-12-29T23:30:03.098Z,6.77
2018-12-29T23:32:33.142Z,6.83
2018-12-29T23:35:03.593Z,6.74
2018-12-29T23:37:32.931Z,6.68
2018-12-29T23:40:02.355Z,6.75
2018-12-29T23:42:32.009Z,6.72
2018-12-29T23:45:01.253Z,6.71
2018-12-29T23:47:31.263Z,6.73
2018-12-29T23:50:00.889Z,6.73
2018-12-29T23:52:30.507Z,6.73
2018-12-29T23:55:00.315Z,6.63
2018-12-29T23:57:32.352Z,6.63
